Time;durP1;ratioP1;P1;durP2;ratioP2;P2;SDS_P1;SDS_P2;PMS_P1;PMS_P2;Temp;Humidity;BMP_temperature;BMP_pressure;BME280_temperature;BME280_humidity;BME280_pressure;Samples;Min_cycle;Max_cycle;Signal;HPM_P1;HPM_P2
2022/05/12 00:01:05;;;;;;;11.10;4.20;;;;;;;-144.47;42.67;53120.25;5027309;28;20037;-67
2022/05/12 00:03:31;;;;;;;12.93;3.55;;;;;;;-144.47;42.85;53134.16;5028116;28;20033;-68
2022/05/12 00:05:56;;;;;;;9.77;3.65;;;;;;;-144.47;42.51;53134.16;5027860;28;20095;-69
2022/05/12 00:08:22;;;;;;;6.70;3.13;;;;;;;-144.47;42.75;53150.06;5027472;28;20084;-67
2022/05/12 00:10:47;;;;;;;8.45;3.58;;;;;;;-144.47;42.76;53161.97;5021617;28;20091;-70
2022/05/12 00:13:13;;;;;;;11.40;3.58;;;;;;;-144.47;42.58;53114.31;5027248;28;20523;-69
2022/05/12 00:15:38;;;;;;;8.45;4.20;;;;;;;-144.47;42.68;53138.13;5033983;28;20068;-68
2022/05/12 00:18:08;;;;;;;5.35;3.00;;;;;;;-144.47;42.44;53124.22;5026919;28;20056;-69
2022/05/12 00:20:36;;;;;;;10.18;3.40;;;;;;;-144.47;42.20;53102.38;5027736;28;20108;-68
2022/05/12 00:23:21;;;;;;;7.30;2.83;;;;;;;-144.47;41.72;53144.09;5027555;28;20207;-69
2022/05/12 00:25:48;;;;;;;10.77;2.85;;;;;;;-144.47;41.44;53175.88;5029831;28;20042;-70
2022/05/12 00:28:15;;;;;;;10.00;3.53;;;;;;;-144.47;41.07;53116.28;5035823;28;20051;-69
2022/05/12 00:30:43;;;;;;;8.00;2.88;;;;;;;-144.47;40.93;53100.41;5039933;28;20082;-69
2022/05/12 00:33:09;;;;;;;7.38;2.45;;;;;;;-144.47;40.60;53122.25;5034921;28;20086;-67
2022/05/12 00:35:35;;;;;;;6.05;2.70;;;;;;;-144.47;40.19;53124.22;5035388;28;20021;-70
2022/05/12 00:38:01;;;;;;;7.10;2.53;;;;;;;-144.47;40.03;53130.19;5034474;28;20536;-69
2022/05/12 00:40:27;;;;;;;7.13;2.53;;;;;;;-144.47;39.86;53130.19;5034674;28;20025;-69
2022/05/12 00:43:05;;;;;;;6.72;2.78;;;;;;;-144.47;39.76;53114.31;5034741;28;20449;-70
2022/05/12 00:45:35;;;;;;;7.32;2.95;;;;;;;-144.47;39.51;53096.41;5034135;28;20026;-66
2022/05/12 00:48:01;;;;;;;7.60;2.65;;;;;;;-144.47;39.82;53104.38;5029513;28;20030;-68
2022/05/12 00:50:31;;;;;;;8.25;2.75;;;;;;;-144.47;39.77;53102.38;5039381;28;20025;-70
2022/05/12 00:53:00;;;;;;;5.55;2.30;;;;;;;-144.47;39.80;53114.31;5039767;28;20028;-68
2022/05/12 00:55:32;;;;;;;24.10;2.92;;;;;;;-144.47;39.86;53130.19;5032368;28;20029;-68
2022/05/12 00:57:59;;;;;;;7.82;2.38;;;;;;;-144.47;39.74;53098.41;5040389;28;20645;-71
2022/05/12 01:00:24;;;;;;;8.63;2.45;;;;;;;-144.47;39.83;53102.38;5041561;28;20029;-68
2022/05/12 01:02:54;;;;;;;10.10;2.83;;;;;;;-144.47;39.79;53104.38;5032233;28;20586;-69
2022/05/12 01:05:23;;;;;;;7.57;2.50;;;;;;;-144.47;39.69;53161.97;5034031;28;20029;-69
2022/05/12 01:07:51;;;;;;;8.88;2.80;;;;;;;-144.47;40.02;53096.41;5033922;28;20039;-68
2022/05/12 01:10:18;;;;;;;7.65;2.33;;;;;;;-144.47;39.73;53100.41;5033998;28;20107;-67
2022/05/12 01:12:46;;;;;;;9.75;2.83;;;;;;;-144.47;39.74;53106.34;5033760;28;20108;-65
2022/05/12 01:15:12;;;;;;;6.88;2.42;;;;;;;-144.47;39.65;53110.31;5029076;28;20068;-68
2022/05/12 01:17:37;;;;;;;4.45;2.38;;;;;;;-144.47;39.46;53122.25;5027532;28;20069;-67
2022/05/12 01:20:04;;;;;;;5.00;2.15;;;;;;;-144.47;39.52;53134.16;5037514;28;20502;-67
2022/05/12 01:22:39;;;;;;;5.30;2.30;;;;;;;-144.47;39.34;53142.09;5033256;28;20055;-69
2022/05/12 01:25:10;;;;;;;9.90;2.55;;;;;;;-144.47;39.34;53096.41;5025304;28;20026;-67
2022/05/12 01:27:35;;;;;;;4.75;2.20;;;;;;;-144.47;38.62;53054.72;5033778;28;20025;-66
2022/05/12 01:30:01;;;;;;;9.20;2.85;;;;;;;-144.47;38.58;53100.41;5032785;28;20029;-69
2022/05/12 01:32:28;;;;;;;8.90;2.67;;;;;;;-144.47;38.65;53074.56;5036084;28;20022;-67
2022/05/12 01:34:55;;;;;;;5.20;2.35;;;;;;;-144.47;38.42;53120.25;5034150;28;20484;-69
2022/05/12 01:37:21;;;;;;;5.80;2.53;;;;;;;-144.47;38.15;53104.38;5031597;28;20036;-69
2022/05/12 01:39:47;;;;;;;8.02;2.30;;;;;;;-144.47;38.23;53074.56;5031723;28;20022;-68
2022/05/12 01:42:13;;;;;;;5.13;1.98;;;;;;;-144.47;37.78;53130.19;5030060;28;20412;-68
2022/05/12 01:44:40;;;;;;;7.95;1.98;;;;;;;-144.47;37.68;53118.28;5031603;28;20030;-67
2022/05/12 01:47:07;;;;;;;6.53;2.10;;;;;;;-144.47;37.46;53072.59;5030943;28;20036;-67
2022/05/12 01:49:32;;;;;;;4.80;2.00;;;;;;;-144.47;37.40;53118.28;5029908;28;20029;-69
2022/05/12 01:51:59;;;;;;;4.60;1.83;;;;;;;-144.47;37.15;53114.31;5031538;28;20202;-69
2022/05/12 01:54:26;;;;;;;5.45;2.28;;;;;;;-144.47;37.02;53046.75;5029709;28;20202;-68
2022/05/12 01:56:52;;;;;;;17.35;2.70;;;;;;;-144.47;36.84;53084.50;5031202;28;20055;-70
2022/05/12 01:59:18;;;;;;;10.73;2.03;;;;;;;-144.47;36.85;53102.38;5039115;28;20108;-69
2022/05/12 02:01:45;;;;;;;7.60;2.10;;;;;;;-144.47;36.70;53118.28;5032300;28;20515;-66
2022/05/12 02:04:10;;;;;;;5.88;1.80;;;;;;;-144.47;36.85;53120.25;5030049;28;20025;-71
2022/05/12 02:06:36;;;;;;;8.05;2.25;;;;;;;-144.47;36.84;53074.56;5030254;28;20100;-66
2022/05/12 02:09:01;;;;;;;9.10;1.67;;;;;;;-144.47;36.93;53104.38;5030297;28;20031;-69
2022/05/12 02:11:26;;;;;;;4.05;1.80;;;;;;;-144.47;37.02;53086.50;5030131;28;20091;-70
2022/05/12 02:13:52;;;;;;;4.15;1.90;;;;;;;-144.47;37.23;53078.53;5029364;28;20033;-69
2022/05/12 02:16:18;;;;;;;11.20;1.83;;;;;;;-144.47;37.40;53098.41;5029559;28;20025;-70
2022/05/12 02:18:43;;;;;;;5.53;1.80;;;;;;;-144.47;37.25;53090.47;5028947;28;20033;-69
2022/05/12 02:21:10;;;;;;;7.18;1.83;;;;;;;-144.47;37.35;53088.47;5029380;28;20079;-68
2022/05/12 02:23:35;;;;;;;10.05;2.22;;;;;;;-144.47;37.30;53106.34;5029715;28;20025;-69
2022/05/12 02:26:00;;;;;;;13.48;2.00;;;;;;;-144.47;37.05;53104.38;5030389;28;20112;-69
2022/05/12 02:28:26;;;;;;;4.20;1.80;;;;;;;-144.47;36.92;53124.22;5029987;28;20021;-67
2022/05/12 02:30:52;;;;;;;11.68;2.03;;;;;;;-144.47;37.13;53086.50;5017877;28;20136;-69
2022/05/12 02:33:17;;;;;;;7.80;1.75;;;;;;;-144.47;36.75;53110.31;5028459;28;20030;-70
2022/05/12 02:35:43;;;;;;;9.27;1.85;;;;;;;-144.47;36.95;53082.53;5027608;28;20038;-67
2022/05/12 02:38:09;;;;;;;9.02;1.88;;;;;;;-144.47;36.82;53094.44;5028075;28;20040;-70
2022/05/12 02:40:35;;;;;;;5.95;1.75;;;;;;;-144.47;36.87;53090.47;5029291;28;20124;-65
2022/05/12 02:43:00;;;;;;;4.60;1.50;;;;;;;-144.47;36.91;53078.53;5028335;28;20105;-70
2022/05/12 02:45:28;;;;;;;5.68;1.88;;;;;;;-144.47;36.93;53074.56;5028943;28;20503;-68
2022/05/12 02:47:53;;;;;;;5.72;1.70;;;;;;;-144.47;37.25;53102.38;5028560;28;20029;-68
2022/05/12 02:50:19;;;;;;;4.65;1.67;;;;;;;-144.47;38.18;53116.28;5027951;28;20053;-69
2022/05/12 02:52:45;;;;;;;9.38;2.22;;;;;;;-144.47;39.14;53122.25;5027378;28;20083;-65
2022/05/12 02:55:11;;;;;;;18.20;2.60;;;;;;;-144.47;40.53;53100.41;5029420;28;20072;-70
2022/05/12 02:57:39;;;;;;;10.73;2.97;;;;;;;-144.47;44.04;53098.41;5029482;28;20043;-69
2022/05/12 03:00:07;;;;;;;9.45;3.00;;;;;;;-144.47;45.05;53106.34;5037522;28;20030;-68
2022/05/12 03:02:33;;;;;;;18.00;3.65;;;;;;;-144.47;46.42;53144.09;5033126;28;20043;-71
2022/05/12 03:04:58;;;;;;;14.40;3.33;;;;;;;-144.47;47.35;53146.09;5029075;28;20396;-67
2022/05/12 03:07:24;;;;;;;7.43;3.50;;;;;;;-144.47;47.92;53146.09;5027464;28;20032;-67
2022/05/12 03:09:49;;;;;;;12.35;3.53;;;;;;;-144.47;48.55;53165.94;5028374;28;20037;-68
2022/05/12 03:12:14;;;;;;;10.98;3.55;;;;;;;-144.47;48.93;53154.03;5029251;28;20021;-66
2022/05/12 03:14:40;;;;;;;13.55;3.78;;;;;;;-144.47;49.19;53146.09;5010922;28;20207;-68
2022/05/12 03:17:06;;;;;;;10.65;3.75;;;;;;;-144.47;49.61;53146.09;5022249;28;20049;-66
2022/05/12 03:19:31;;;;;;;11.13;3.53;;;;;;;-144.47;49.68;53169.91;5022300;28;20116;-67
2022/05/12 03:21:57;;;;;;;8.90;3.13;;;;;;;-144.47;49.92;53146.09;5028526;28;20111;-67
2022/05/12 03:24:22;;;;;;;12.73;3.88;;;;;;;-144.47;50.22;53120.25;5028209;28;20025;-69
2022/05/12 03:26:48;;;;;;;13.68;4.35;;;;;;;-144.47;50.41;53130.19;5029041;28;20025;-71
2022/05/12 03:29:14;;;;;;;10.50;3.67;;;;;;;-144.47;50.53;53193.75;5027543;28;20036;-66
2022/05/12 03:31:39;;;;;;;12.15;3.65;;;;;;;-144.47;50.75;53163.97;5028480;28;20029;-67
2022/05/12 03:34:06;;;;;;;15.30;3.80;;;;;;;-144.47;50.87;53167.94;5028458;28;20040;-66
2022/05/12 03:36:35;;;;;;;10.32;3.58;;;;;;;-144.47;50.99;53161.97;5028908;28;20162;-69
2022/05/12 03:39:02;;;;;;;9.32;3.17;;;;;;;-144.47;51.15;53161.97;5028637;28;20436;-69
2022/05/12 03:41:27;;;;;;;10.18;3.53;;;;;;;-144.47;51.34;53171.91;5027445;28;20495;-68
2022/05/12 03:46:37;;;;;;;21.67;4.45;;;;;;;-144.47;51.38;53161.97;5028623;28;20490;-67
2022/05/12 03:49:02;;;;;;;8.15;2.75;;;;;;;-144.47;51.48;53181.84;5026215;28;20045;-68
2022/05/12 03:51:27;;;;;;;12.48;3.25;;;;;;;-144.47;51.44;53183.81;5027965;28;20025;-68
2022/05/12 03:53:52;;;;;;;9.63;3.13;;;;;;;-144.47;51.42;53136.16;5027557;28;20131;-68
2022/05/12 03:56:18;;;;;;;14.32;4.03;;;;;;;-144.47;51.76;53175.88;5027296;28;20021;-68
2022/05/12 03:58:43;;;;;;;11.30;3.88;;;;;;;-144.47;51.57;53167.94;5023433;28;20021;-70
2022/05/12 04:01:09;;;;;;;14.35;3.50;;;;;;;-144.47;51.42;53163.97;5027262;28;20025;-66
2022/05/12 04:03:34;;;;;;;13.90;3.28;;;;;;;-144.47;51.67;53175.88;5026294;28;20033;-70
2022/05/12 04:06:01;;;;;;;11.52;3.05;;;;;;;-144.47;51.67;53169.91;5016321;28;20174;-68
2022/05/12 04:08:27;;;;;;;11.10;3.83;;;;;;;-144.47;51.82;53179.84;5027993;28;20029;-71
2022/05/12 04:10:52;;;;;;;11.35;3.28;;;;;;;-144.47;51.86;53136.16;5028157;28;20088;-70
2022/05/12 04:13:18;;;;;;;8.77;2.67;;;;;;;-144.47;52.04;53195.75;5026404;28;20033;-69
2022/05/12 04:15:43;;;;;;;14.82;3.40;;;;;;;-144.47;52.13;53193.75;5028280;28;20029;-69
2022/05/12 04:18:09;;;;;;;7.68;2.67;;;;;;;-144.47;52.22;53191.78;5026848;28;20569;-69
2022/05/12 04:20:37;;;;;;;13.82;3.47;;;;;;;-144.47;52.46;53167.94;5027832;28;20077;-71
2022/05/12 04:23:03;;;;;;;8.43;3.00;;;;;;;-144.47;52.63;53169.91;5027646;28;20132;-72
2022/05/12 04:25:28;;;;;;;12.68;3.38;;;;;;;-144.47;52.66;53173.88;5027687;28;20067;-71
2022/05/12 04:27:53;;;;;;;11.82;3.55;;;;;;;-144.47;52.61;53193.75;5036991;28;20033;-69
2022/05/12 04:30:23;;;;;;;13.35;3.50;;;;;;;-144.47;52.39;53215.59;5030534;28;20017;-68
2022/05/12 04:32:48;;;;;;;6.82;3.20;;;;;;;-144.47;52.20;53161.97;5026492;28;20489;-66
2022/05/12 04:35:14;;;;;;;11.48;3.33;;;;;;;-144.47;52.36;53195.75;5018337;28;20034;-67
2022/05/12 04:37:54;;;;;;;13.43;3.08;;;;;;;-144.47;52.44;53165.94;5027678;28;20025;-70
2022/05/12 04:40:19;;;;;;;8.63;3.00;;;;;;;-144.47;51.69;53195.75;5028322;28;20017;-67
2022/05/12 04:42:47;;;;;;;6.22;2.72;;;;;;;-144.47;51.35;53142.09;5026642;28;20103;-70
2022/05/12 04:45:14;;;;;;;11.60;3.00;;;;;;;-144.47;50.40;53195.75;5019393;28;20044;-68
2022/05/12 04:47:40;;;;;;;11.80;2.10;;;;;;;-144.47;49.73;53163.97;5031596;28;20527;-68
2022/05/12 04:50:09;;;;;;;11.02;2.03;;;;;;;-144.47;48.69;53181.84;5029969;28;20030;-68
2022/05/12 04:52:34;;;;;;;6.60;1.70;;;;;;;-144.47;48.26;53193.75;5017162;28;20049;-68
2022/05/12 04:55:00;;;;;;;4.00;1.60;;;;;;;-144.47;47.96;53142.09;5023739;28;20465;-68
2022/05/12 04:57:25;;;;;;;8.40;1.40;;;;;;;-144.47;46.81;53187.78;5022088;28;20034;-70
2022/05/12 04:59:55;;;;;;;11.73;1.27;;;;;;;-144.47;46.46;53201.69;5023026;28;20060;-67
2022/05/12 05:02:21;;;;;;;43.15;2.38;;;;;;;-144.47;46.53;53154.03;5026310;28;20022;-68
2022/05/12 05:04:47;;;;;;;11.93;1.60;;;;;;;-144.47;46.65;53209.66;5022066;28;20060;-67
2022/05/12 05:07:13;;;;;;;6.68;1.35;;;;;;;-144.47;46.94;53167.94;5017386;28;20029;-71
2022/05/12 05:09:38;;;;;;;6.22;1.35;;;;;;;-144.47;47.19;53167.94;5026212;28;20025;-65
2022/05/12 05:14:31;;;;;;;3.42;1.27;;;;;;;-144.47;47.21;53197.72;5028403;28;20061;-65
2022/05/12 05:16:56;;;;;;;1.95;1.00;;;;;;;-144.47;47.32;53179.84;5031316;28;20022;-63
2022/05/12 05:19:22;;;;;;;5.82;1.25;;;;;;;-144.47;47.32;53177.88;5017228;28;20044;-65
2022/05/12 05:21:47;;;;;;;8.23;1.42;;;;;;;-144.47;47.61;53160.00;5024896;28;20030;-65
2022/05/12 05:24:12;;;;;;;5.60;1.10;;;;;;;-144.47;47.67;53171.91;5027693;28;20116;-65
2022/05/12 05:26:38;;;;;;;9.20;1.23;;;;;;;-144.47;47.92;53163.97;5025247;28;20096;-66
2022/05/12 05:29:03;;;;;;;5.90;1.10;;;;;;;-144.47;48.26;53193.75;5010039;28;20121;-65
2022/05/12 05:31:29;;;;;;;6.30;1.35;;;;;;;-144.47;48.54;53163.97;5026021;28;20056;-66
2022/05/12 05:33:54;;;;;;;8.77;1.38;;;;;;;-144.47;48.83;53161.97;5011126;28;20052;-65
2022/05/12 05:36:20;;;;;;;4.85;1.30;;;;;;;-144.47;48.93;53207.66;5025767;28;20025;-65
2022/05/12 05:38:45;;;;;;;5.20;1.33;;;;;;;-144.47;49.03;53213.63;5031693;28;20036;-65
2022/05/12 05:41:11;;;;;;;2.50;0.98;;;;;;;-144.47;49.11;53177.88;5031913;28;20453;-65
2022/05/12 05:43:37;;;;;;;6.85;1.52;;;;;;;-144.47;49.28;53173.88;5031692;28;20040;-65
2022/05/12 05:46:03;;;;;;;6.90;1.27;;;;;;;-144.47;49.03;53158.00;5032111;28;20021;-66
2022/05/12 05:48:28;;;;;;;4.70;1.25;;;;;;;-144.47;49.01;53156.00;4997364;28;20026;-65
2022/05/12 05:53:38;;;;;;;3.45;1.25;;;;;;;-144.47;49.01;53215.59;5021273;28;20067;-62
2022/05/12 05:56:09;;;;;;;10.40;1.75;;;;;;;-144.47;48.87;53187.78;5031554;28;20033;-65
2022/05/12 05:58:35;;;;;;;8.30;1.60;;;;;;;-144.47;49.31;53181.84;5028653;28;20484;-65
2022/05/12 06:01:00;;;;;;;3.10;1.20;;;;;;;-144.47;49.36;53161.97;5031133;28;20043;-63
2022/05/12 06:03:26;;;;;;;5.15;1.55;;;;;;;-144.47;49.26;53191.78;5031314;28;20438;-65
2022/05/12 06:05:52;;;;;;;7.68;1.33;;;;;;;-144.47;49.11;53169.91;5031322;28;20739;-64
2022/05/12 06:08:20;;;;;;;5.43;1.30;;;;;;;-144.47;49.24;53163.97;5010200;28;20053;-63
2022/05/12 06:10:45;;;;;;;7.38;1.88;;;;;;;-144.47;49.47;53205.66;5010453;28;20037;-65
2022/05/12 06:13:12;;;;;;;5.45;1.40;;;;;;;-144.47;49.36;53185.81;5022180;28;20022;-62
2022/05/12 06:15:38;;;;;;;3.00;1.33;;;;;;;-144.47;49.06;53171.91;5031454;28;20044;-66
2022/05/12 06:18:09;;;;;;;5.22;1.40;;;;;;;-144.47;49.33;53163.97;5027430;28;20025;-66
2022/05/12 06:20:34;;;;;;;4.93;1.85;;;;;;;-144.47;49.48;53154.03;5031270;28;20021;-66
2022/05/12 06:22:59;;;;;;;8.75;2.17;;;;;;;-144.47;49.11;53163.97;5030312;28;20029;-63
2022/05/12 06:25:25;;;;;;;7.05;1.35;;;;;;;-144.47;49.31;53205.66;5029923;28;20026;-63
2022/05/12 06:27:51;;;;;;;4.53;1.45;;;;;;;-144.47;48.96;53189.78;5026697;28;20033;-68
2022/05/12 06:30:17;;;;;;;4.32;1.38;;;;;;;-144.47;48.94;53181.84;5023197;28;20032;-64
2022/05/12 06:32:44;;;;;;;3.55;1.33;;;;;;;-144.47;48.84;53173.88;5009957;28;20025;-66
2022/05/12 06:35:12;;;;;;;3.83;1.60;;;;;;;-144.47;48.51;53171.91;5021043;28;20021;-69
2022/05/12 06:37:38;;;;;;;7.82;1.48;;;;;;;-144.47;48.40;53191.78;5023909;28;20489;-64
2022/05/12 06:40:04;;;;;;;1.60;1.00;;;;;;;-144.47;47.82;53150.06;5016343;28;20044;-65
2022/05/12 06:42:31;;;;;;;4.03;1.20;;;;;;;-144.47;47.26;53161.97;5029785;28;20021;-63
2022/05/12 06:44:56;;;;;;;9.52;1.33;;;;;;;-144.47;46.95;53179.84;5030992;28;20029;-65
2022/05/12 06:47:22;;;;;;;8.35;1.30;;;;;;;-144.47;46.67;53154.03;5026917;28;20096;-66
2022/05/12 06:49:51;;;;;;;13.32;2.05;;;;;;;-144.47;46.75;53177.88;5030791;28;20025;-66
2022/05/12 06:52:17;;;;;;;6.80;1.33;;;;;;;-144.47;46.57;53177.88;5030542;28;20060;-65
2022/05/12 06:54:44;;;;;;;8.02;1.40;;;;;;;-144.47;46.13;53171.91;5030667;28;20029;-64
2022/05/12 06:57:11;;;;;;;17.00;1.98;;;;;;;-144.47;45.41;53154.03;5029235;28;20040;-66
2022/05/12 06:59:38;;;;;;;6.55;1.40;;;;;;;-144.47;45.13;53183.81;5030537;28;20044;-67
2022/05/12 07:02:04;;;;;;;9.73;1.20;;;;;;;-144.47;44.80;53169.91;5030028;28;20028;-63
2022/05/12 07:04:31;;;;;;;4.35;1.00;;;;;;;-144.47;44.36;53169.91;5030530;28;20013;-64
2022/05/12 07:06:56;;;;;;;3.22;1.25;;;;;;;-144.47;44.34;53189.78;5030798;28;20037;-65
2022/05/12 07:09:21;;;;;;;1.75;0.98;;;;;;;-144.47;43.67;53161.97;5030557;28;20056;-65
2022/05/12 07:11:47;;;;;;;7.90;1.25;;;;;;;-144.47;43.51;53177.88;5030936;28;20029;-67
2022/05/12 07:14:14;;;;;;;2.83;0.95;;;;;;;-144.47;43.34;53136.16;5030485;28;20017;-66
2022/05/12 07:16:41;;;;;;;3.92;1.00;;;;;;;-144.47;43.37;53169.91;5030640;28;20075;-64
2022/05/12 07:19:06;;;;;;;7.32;1.02;;;;;;;-144.47;43.07;53163.97;5029386;28;20029;-66
2022/05/12 07:27:00;;;;;;;9.75;1.10;;;;;;;-144.47;42.84;53169.91;5022842;28;20035;-64
2022/05/12 07:29:27;;;;;;;5.22;1.17;;;;;;;-144.47;42.47;53144.09;5029910;28;20029;-63
2022/05/12 07:31:53;;;;;;;8.98;1.20;;;;;;;-144.47;42.12;53167.94;5030492;28;20034;-66
2022/05/12 07:34:20;;;;;;;4.22;1.02;;;;;;;-144.47;41.46;53144.09;5029464;28;20028;-65
2022/05/12 07:36:48;;;;;;;6.82;1.30;;;;;;;-144.47;41.43;53163.97;5030420;28;20053;-65
2022/05/12 07:39:13;;;;;;;2.78;1.10;;;;;;;-144.47;41.28;53154.03;5016212;28;20033;-65
2022/05/12 07:41:41;;;;;;;5.93;1.33;;;;;;;-144.47;41.30;53130.19;5027988;28;20037;-66
2022/05/12 07:44:13;;;;;;;4.50;0.98;;;;;;;-144.47;41.48;53169.91;5029901;28;20084;-63
2022/05/12 07:46:39;;;;;;;5.47;0.73;;;;;;;-144.47;41.41;53150.06;5012403;28;20341;-65
2022/05/12 07:49:04;;;;;;;2.40;0.90;;;;;;;-144.47;41.08;53171.91;5029749;28;20083;-66
2022/05/12 07:51:30;;;;;;;3.70;1.33;;;;;;;-144.47;41.55;53173.88;5029763;28;20112;-65
2022/05/12 07:53:55;;;;;;;7.47;0.90;;;;;;;-144.47;41.22;53146.09;5029515;28;20021;-63
2022/05/12 07:56:23;;;;;;;6.07;1.10;;;;;;;-144.47;41.20;53156.00;5028272;28;20036;-64
2022/05/12 07:58:49;;;;;;;11.85;1.10;;;;;;;-144.47;41.09;53150.06;5025778;28;20017;-66
2022/05/12 08:01:17;;;;;;;3.25;0.95;;;;;;;-144.47;40.91;53169.91;5028275;28;20055;-65
2022/05/12 08:03:44;;;;;;;3.93;0.80;;;;;;;-144.47;41.45;53148.06;5029403;28;20040;-64
2022/05/12 08:06:10;;;;;;;7.32;1.52;;;;;;;-144.47;41.11;53156.00;5028794;28;20112;-64
2022/05/12 08:08:36;;;;;;;4.35;0.80;;;;;;;-144.47;40.60;53150.06;5011585;28;20143;-63
2022/05/12 08:11:02;;;;;;;5.03;0.90;;;;;;;-144.47;40.68;53152.03;5029399;28;20048;-65
2022/05/12 08:13:28;;;;;;;5.63;1.40;;;;;;;-144.47;41.22;53150.06;5028899;28;20547;-63
2022/05/12 08:15:54;;;;;;;1.55;0.80;;;;;;;-144.47;40.75;53154.03;5011076;28;20037;-65
2022/05/12 08:18:21;;;;;;;5.88;0.93;;;;;;;-144.47;40.71;53124.22;5029247;28;20029;-66
2022/05/12 08:20:48;;;;;;;3.85;0.90;;;;;;;-144.47;40.65;53148.06;5028516;28;20488;-65
2022/05/12 08:23:14;;;;;;;2.80;0.77;;;;;;;-144.47;40.58;53173.88;5029146;28;20618;-65
2022/05/12 08:25:40;;;;;;;5.28;0.98;;;;;;;-144.47;40.36;53177.88;5028577;28;20018;-65
2022/05/12 08:28:06;;;;;;;5.40;0.93;;;;;;;-144.47;40.66;53158.00;5024856;28;20500;-63
2022/05/12 08:30:32;;;;;;;2.95;0.73;;;;;;;-144.47;40.35;53138.13;5011031;28;20025;-66
2022/05/12 08:32:58;;;;;;;4.20;0.77;;;;;;;-144.47;40.51;53154.03;5029217;28;20022;-67
2022/05/12 08:35:25;;;;;;;8.25;1.50;;;;;;;-144.47;40.97;53161.97;5029089;28;20029;-65
2022/05/12 08:37:50;;;;;;;6.30;0.98;;;;;;;-144.47;40.58;53154.03;5029139;28;20036;-65
2022/05/12 08:40:37;;;;;;;7.38;1.45;;;;;;;-144.47;40.20;53154.03;5028653;28;20451;-63
2022/05/12 08:43:16;;;;;;;2.90;0.90;;;;;;;-144.47;40.19;53120.25;5027620;28;20041;-66
2022/05/12 08:45:43;;;;;;;2.72;1.85;;;;;;;-144.47;40.08;53158.00;5029463;28;20029;-66
2022/05/12 08:48:12;;;;;;;4.10;1.25;;;;;;;-144.47;39.68;53122.25;5020634;28;20029;-63
2022/05/12 08:50:40;;;;;;;2.67;0.80;;;;;;;-144.47;39.43;53140.13;5025878;28;20052;-63
2022/05/12 08:53:12;;;;;;;7.60;1.10;;;;;;;-144.47;39.01;53161.97;5032446;28;20045;-64
2022/05/12 08:55:56;;;;;;;3.60;0.88;;;;;;;-144.47;39.48;53175.88;5033290;28;20036;-66
2022/05/12 08:58:37;;;;;;;1.27;0.80;;;;;;;-144.47;39.13;53146.09;5032428;28;20044;-65
2022/05/12 09:01:09;;;;;;;9.52;2.15;;;;;;;-144.47;38.96;53150.06;5032497;28;20033;-63
2022/05/12 09:04:02;;;;;;;11.70;1.70;;;;;;;-144.47;38.71;53177.88;5032899;28;20025;-66
2022/05/12 09:06:33;;;;;;;2.28;0.77;;;;;;;-144.47;39.08;53118.28;5032796;28;20096;-64
2022/05/12 09:09:31;;;;;;;2.53;1.05;;;;;;;-144.47;38.92;53150.06;5032109;28;20441;-65
2022/05/12 09:12:05;;;;;;;2.95;0.90;;;;;;;-144.47;39.14;53114.31;5024246;28;20033;-64
2022/05/12 09:14:34;;;;;;;2.17;0.93;;;;;;;-144.47;38.12;53118.28;5032130;28;20037;-65
2022/05/12 09:17:01;;;;;;;1.52;0.77;;;;;;;-144.47;38.17;53112.31;5032516;28;20108;-64
2022/05/12 09:19:27;;;;;;;2.58;0.80;;;;;;;-144.47;38.20;53183.81;5018915;28;20216;-64
2022/05/12 09:21:54;;;;;;;6.07;0.90;;;;;;;-144.47;37.97;53154.03;5022303;28;20022;-67
2022/05/12 09:24:19;;;;;;;2.75;1.00;;;;;;;-144.47;37.86;53136.16;5023157;28;20013;-64
2022/05/12 09:26:48;;;;;;;3.97;0.93;;;;;;;-144.47;37.75;53122.25;5023919;28;20087;-65
2022/05/12 09:29:24;;;;;;;3.40;1.25;;;;;;;-144.47;37.30;53138.13;5024648;28;20060;-64
2022/05/12 09:31:52;;;;;;;3.63;0.90;;;;;;;-144.47;37.33;53146.09;5022979;28;20029;-63
2022/05/12 09:34:34;;;;;;;10.20;0.93;;;;;;;-144.47;37.17;53128.22;5028517;28;20029;-66
2022/05/12 09:37:12;;;;;;;2.72;0.73;;;;;;;-144.47;37.08;53126.22;5026589;28;20121;-65
2022/05/12 09:39:41;;;;;;;1.98;0.65;;;;;;;-144.47;36.29;53100.41;5020142;28;20037;-64
2022/05/12 09:42:15;;;;;;;;;;;;;;;-144.47;35.92;53136.16;5021474;28;20119;-63
2022/05/12 09:44:52;;;;;;;3.40;0.85;;;;;;;-144.47;36.48;53154.03;5005284;28;19917;-65
2022/05/12 09:47:17;;;;;;;4.97;0.90;;;;;;;-144.47;36.13;53128.22;5021793;28;20087;-65
2022/05/12 09:49:46;;;;;;;8.38;0.90;;;;;;;-144.47;36.08;53146.09;5031129;28;20420;-65
2022/05/12 09:52:18;;;;;;;;;;;;;;;-144.47;35.83;53175.88;5032145;28;20057;-64
2022/05/12 09:54:44;;;;;;;2.55;1.13;;;;;;;-144.47;35.88;53110.31;5031936;28;19909;-66
2022/05/12 09:57:13;;;;;;;11.70;1.15;;;;;;;-144.47;36.33;53138.13;5030682;28;20326;-66
2022/05/12 09:59:40;;;;;;;3.47;1.08;;;;;;;-144.47;36.09;53144.09;5025269;28;20022;-64
2022/05/12 10:07:53;;;;;;;5.68;1.05;;;;;;;-144.47;35.26;53144.09;5025781;28;20061;-65
2022/05/12 10:08:28;;;;;;;4.10;0.83;;;;;;;-144.47;33.80;53112.31;5032327;28;20087;-64
2022/05/12 10:11:06;;;;;;;2.88;0.90;;;;;;;-144.47;33.19;53118.28;5023343;28;20041;-63
2022/05/12 10:13:53;;;;;;;2.22;0.70;;;;;;;-144.47;32.88;53088.47;5030670;28;20071;-63
2022/05/12 10:16:25;;;;;;;3.28;0.70;;;;;;;-144.47;30.18;53110.31;5031239;28;20124;-64
2022/05/12 10:18:56;;;;;;;4.90;0.82;;;;;;;-144.47;29.51;53092.44;5030938;28;20018;-66
2022/05/12 10:21:28;;;;;;;3.63;0.82;;;;;;;-144.47;29.30;53078.53;5032329;28;20128;-62
2022/05/12 10:24:02;;;;;;;4.20;0.95;;;;;;;-144.47;29.89;53084.50;5030986;28;20021;-66
2022/05/12 10:26:50;;;;;;;4.13;0.82;;;;;;;-144.47;30.94;53088.47;5026598;28;20620;-64
2022/05/12 10:29:47;;;;;;;0.60;0.60;;;;;;;-144.47;29.25;53142.09;5029337;28;20113;-64
2022/05/12 10:32:51;;;;;;;3.63;0.70;;;;;;;-144.47;28.77;53090.47;5025616;28;20504;-65
2022/05/12 10:35:23;;;;;;;9.18;1.00;;;;;;;-144.47;29.64;53062.66;5003193;28;20040;-65
2022/05/12 10:38:06;;;;;;;10.63;0.85;;;;;;;-144.47;29.22;53102.38;5015354;28;20505;-66
2022/05/12 10:40:41;;;;;;;4.10;0.77;;;;;;;-144.47;30.11;53108.34;5013847;28;20056;-66
2022/05/12 10:43:38;;;;;;;4.78;0.80;;;;;;;-144.47;29.17;53128.22;5015608;28;20031;-65
2022/05/12 10:46:21;;;;;;;3.03;0.50;;;;;;;-144.47;28.79;53092.44;5018784;28;20055;-62
2022/05/12 10:49:06;;;;;;;7.15;1.13;;;;;;;-144.47;29.07;53078.53;4995788;28;20048;-65
2022/05/12 10:51:59;;;;;;;3.15;0.63;;;;;;;-144.47;28.85;53090.47;5015342;28;20063;-64
2022/05/12 10:54:43;;;;;;;1.67;0.60;;;;;;;-144.47;27.72;53068.63;5014537;28;20055;-66
2022/05/12 10:57:46;;;;;;;2.47;0.70;;;;;;;-144.47;27.83;53078.53;5016757;28;20497;-63
2022/05/12 11:00:26;;;;;;;1.45;0.50;;;;;;;-144.47;27.56;53036.84;5015073;28;20388;-64
2022/05/12 11:03:04;;;;;;;3.72;0.70;;;;;;;-144.47;27.36;53094.44;5015186;28;20083;-65
2022/05/12 11:05:36;;;;;;;1.48;0.55;;;;;;;-144.47;28.02;53070.59;5020566;28;20034;-66
2022/05/12 11:08:21;;;;;;;3.17;0.75;;;;;;;-144.47;28.21;53090.47;5012427;28;20041;-64
2022/05/12 11:11:18;;;;;;;3.30;0.70;;;;;;;-144.47;28.15;53102.38;5012272;28;20116;-66
2022/05/12 11:13:57;;;;;;;2.55;0.70;;;;;;;-144.47;28.45;53086.50;4959627;22;20110;-67
2022/05/12 11:16:26;;;;;;;2.33;0.75;;;;;;;-144.47;28.66;53050.75;4896789;28;20098;-66
2022/05/12 11:19:21;;;;;;;3.03;0.70;;;;;;;-144.47;29.37;53070.59;4893113;28;20076;-68
2022/05/12 11:22:11;;;;;;;1.63;0.73;;;;;;;-144.47;29.82;53082.53;4890718;28;20059;-70
2022/05/12 11:24:41;;;;;;;8.25;0.70;;;;;;;-144.47;29.25;53080.53;4876477;28;20527;-67
2022/05/12 11:27:36;;;;;;;2.38;0.70;;;;;;;-144.47;29.05;53090.47;4878353;28;20744;-67
2022/05/12 11:30:27;;;;;;;6.50;0.70;;;;;;;-144.47;29.67;53106.34;4862701;28;20041;-69
2022/05/12 11:33:20;;;;;;;0.88;0.52;;;;;;;-144.47;29.57;53088.47;4875093;28;20024;-68
2022/05/12 11:35:49;;;;;;;6.97;0.93;;;;;;;-144.47;29.69;53072.59;4878299;29;20024;-68
2022/05/12 11:38:45;;;;;;;4.25;0.80;;;;;;;-144.47;29.17;53082.53;4883963;28;20036;-69
2022/05/12 11:41:19;;;;;;;4.80;0.80;;;;;;;-144.47;29.46;53110.31;4873264;28;20025;-68
2022/05/12 11:46:48;;;;;;;2.35;0.70;;;;;;;-144.47;29.00;53090.47;4873446;28;20040;-68